Time;durP1;ratioP1;P1;durP2;ratioP2;P2;SDS_P1;SDS_P2;PMS_P1;PMS_P2;Temp;Humidity;BMP_temperature;BMP_pressure;BME280_temperature;BME280_humidity;BME280_pressure;Samples;Min_cycle;Max_cycle;Signal;HPM_P1;HPM_P2
2023/08/22 00:02:00;;;;;;;9.55;6.30;;;19.60;99.90;;;;;;5094123;28;20179;-74
2023/08/22 00:04:26;;;;;;;13.07;6.43;;;19.60;99.90;;;;;;5094337;28;20176;-74
2023/08/22 00:06:51;;;;;;;8.52;6.20;;;19.60;99.90;;;;;;5093927;28;20219;-73
2023/08/22 00:09:17;;;;;;;10.23;6.43;;;19.70;99.90;;;;;;5093995;28;20171;-75
2023/08/22 00:11:43;;;;;;;11.70;6.10;;;19.70;99.90;;;;;;5093900;28;20577;-75
2023/08/22 00:14:09;;;;;;;12.32;6.30;;;19.70;99.90;;;;;;5093958;28;20165;-74
2023/08/22 00:16:34;;;;;;;9.60;5.40;;;19.70;99.90;;;;;;5093948;28;20172;-73
2023/08/22 00:19:00;;;;;;;8.15;5.20;;;19.60;99.90;;;;;;5093591;28;20227;-74
2023/08/22 00:21:26;;;;;;;7.43;5.32;;;19.60;99.90;;;;;;5093479;28;20179;-74
2023/08/22 00:23:51;;;;;;;9.07;5.88;;;19.50;99.90;;;;;;5093796;28;20176;-73
2023/08/22 00:26:17;;;;;;;10.48;6.13;;;19.50;99.90;;;;;;5093595;28;20209;-74
2023/08/22 00:28:42;;;;;;;8.45;5.63;;;19.50;99.90;;;;;;5093586;28;20639;-74
2023/08/22 00:31:08;;;;;;;11.88;5.22;;;19.50;99.90;;;;;;5093705;28;20171;-74
2023/08/22 00:33:33;;;;;;;9.50;5.82;;;19.60;99.90;;;;;;5093722;28;20558;-74
2023/08/22 00:35:59;;;;;;;10.93;6.05;;;19.50;99.90;;;;;;5093206;28;20190;-74
2023/08/22 00:38:25;;;;;;;8.93;5.07;;;19.60;99.90;;;;;;5093473;28;20259;-74
2023/08/22 00:40:50;;;;;;;10.30;5.97;;;19.60;99.90;;;;;;5093591;28;20196;-74
2023/08/22 00:43:16;;;;;;;12.63;5.38;;;19.50;99.90;;;;;;5093505;28;20636;-74
2023/08/22 00:45:43;;;;;;;10.20;5.47;;;19.50;99.90;;;;;;5092683;28;20223;-74
2023/08/22 00:48:08;;;;;;;11.45;5.55;;;19.50;99.90;;;;;;5093446;28;20176;-74
2023/08/22 00:50:34;;;;;;;8.98;5.28;;;19.40;99.90;;;;;;5093135;28;20172;-74
2023/08/22 00:53:01;;;;;;;10.05;6.07;;;19.50;99.90;;;;;;5093467;28;20172;-74
2023/08/22 00:55:27;;;;;;;10.75;6.20;;;19.50;99.90;;;;;;5093382;28;20180;-74
2023/08/22 00:57:52;;;;;;;11.93;5.88;;;19.40;99.90;;;;;;5093422;28;20174;-74
2023/08/22 01:00:18;;;;;;;8.25;5.60;;;19.40;99.90;;;;;;5093280;28;20186;-74
2023/08/22 01:02:44;;;;;;;10.60;5.95;;;19.30;99.90;;;;;;5093487;28;20175;-75
2023/08/22 01:05:10;;;;;;;9.23;5.97;;;19.30;99.90;;;;;;5092902;28;20714;-74
2023/08/22 01:07:53;;;;;;;10.98;6.10;;;19.40;99.90;;;;;;5092031;28;20569;-74
2023/08/22 01:10:28;;;;;;;10.50;5.75;;;19.40;99.90;;;;;;5093404;28;20175;-73
2023/08/22 01:12:58;;;;;;;9.80;6.07;;;19.40;99.90;;;;;;5093273;28;20238;-73
2023/08/22 01:15:26;;;;;;;9.20;6.03;;;19.40;99.90;;;;;;5093179;28;20168;-74
2023/08/22 01:17:57;;;;;;;11.27;6.03;;;19.40;99.90;;;;;;5092757;28;20233;-74
2023/08/22 01:20:24;;;;;;;10.70;6.00;;;19.40;99.90;;;;;;5093144;28;20168;-74
2023/08/22 01:22:50;;;;;;;9.38;5.47;;;19.30;99.90;;;;;;5093142;28;20623;-74
2023/08/22 01:25:16;;;;;;;9.52;6.03;;;19.30;99.90;;;;;;5093038;28;20211;-74
2023/08/22 01:28:00;;;;;;;6.40;5.40;;;19.20;99.90;;;;;;5092994;28;20639;-74
2023/08/22 01:30:35;;;;;;;9.13;5.50;;;19.20;99.90;;;;;;5091913;28;20268;-75
2023/08/22 01:33:11;;;;;;;9.82;5.63;;;19.20;99.90;;;;;;5092762;28;20175;-74
2023/08/22 01:35:38;;;;;;;10.52;5.63;;;19.20;99.90;;;;;;5093068;28;20205;-74
2023/08/22 01:38:05;;;;;;;10.00;5.40;;;19.10;99.90;;;;;;5093038;28;20176;-73
2023/08/22 01:40:31;;;;;;;6.72;5.45;;;19.10;99.90;;;;;;5092973;28;20650;-73
2023/08/22 01:42:58;;;;;;;12.13;5.55;;;19.00;99.90;;;;;;5092943;28;20175;-73
2023/08/22 01:45:23;;;;;;;6.78;5.32;;;19.00;99.90;;;;;;5092603;28;20257;-74
2023/08/22 01:47:49;;;;;;;7.97;5.65;;;19.00;99.90;;;;;;5092589;28;20168;-74
2023/08/22 01:50:15;;;;;;;7.63;5.53;;;19.00;99.90;;;;;;5092862;28;20539;-74
2023/08/22 01:52:41;;;;;;;12.63;5.85;;;19.00;99.90;;;;;;5092746;28;20168;-73
2023/08/22 01:55:07;;;;;;;7.47;5.50;;;19.00;99.90;;;;;;5092817;28;20183;-74
2023/08/22 01:57:32;;;;;;;9.60;5.65;;;18.90;99.90;;;;;;5094196;28;20171;-73
2023/08/22 01:59:58;;;;;;;8.07;5.43;;;18.90;99.90;;;;;;5096630;28;20178;-73
2023/08/22 02:02:24;;;;;;;11.23;6.18;;;18.90;99.90;;;;;;5094805;28;20631;-73
2023/08/22 02:04:49;;;;;;;14.18;5.80;;;18.80;99.90;;;;;;5096376;28;20180;-74
2023/08/22 02:07:15;;;;;;;12.23;5.95;;;18.80;99.90;;;;;;5096437;28;20627;-73
2023/08/22 02:09:41;;;;;;;12.98;5.70;;;18.80;99.90;;;;;;5096408;28;20167;-74
2023/08/22 02:12:07;;;;;;;11.55;6.60;;;18.80;99.90;;;;;;5094975;28;20179;-74
2023/08/22 02:14:33;;;;;;;10.63;5.80;;;18.70;99.90;;;;;;5096061;28;20270;-74
2023/08/22 02:16:59;;;;;;;6.88;6.00;;;18.80;99.90;;;;;;5096337;28;20176;-74
2023/08/22 02:19:24;;;;;;;12.00;6.03;;;18.90;99.90;;;;;;5095802;28;20627;-74
2023/08/22 02:21:50;;;;;;;12.02;6.07;;;18.90;99.90;;;;;;5096198;28;20634;-74
2023/08/22 02:24:15;;;;;;;8.05;5.72;;;18.90;99.90;;;;;;5095983;28;20172;-74
2023/08/22 02:26:42;;;;;;;9.55;5.95;;;18.90;99.90;;;;;;5095959;28;20199;-73
2023/08/22 02:29:09;;;;;;;7.68;5.13;;;19.00;99.90;;;;;;5096060;28;20216;-74
2023/08/22 02:31:34;;;;;;;6.60;5.75;;;19.10;99.90;;;;;;5095663;28;20175;-73
2023/08/22 02:34:00;;;;;;;8.50;6.05;;;19.10;99.90;;;;;;5095966;28;20172;-74
2023/08/22 02:36:26;;;;;;;9.20;6.38;;;19.30;99.90;;;;;;5095826;28;20537;-74
2023/08/22 02:38:51;;;;;;;10.65;5.75;;;19.30;99.90;;;;;;5095763;28;20251;-72
2023/08/22 02:41:17;;;;;;;8.93;5.90;;;19.40;99.90;;;;;;5095503;28;20176;-73
2023/08/22 02:43:42;;;;;;;10.43;5.15;;;19.40;99.90;;;;;;5095529;28;20264;-74
2023/08/22 02:46:08;;;;;;;7.28;5.30;;;19.40;99.90;;;;;;5095236;28;20223;-73
2023/08/22 02:48:33;;;;;;;11.38;5.82;;;19.40;99.90;;;;;;5095675;28;20225;-75
2023/08/22 02:50:59;;;;;;;8.80;5.70;;;19.40;99.90;;;;;;5095651;28;20722;-75
2023/08/22 02:53:25;;;;;;;13.73;5.93;;;19.50;99.90;;;;;;5094535;28;20172;-74
2023/08/22 02:55:50;;;;;;;8.60;5.20;;;19.50;99.90;;;;;;5095308;28;20168;-75
2023/08/22 02:58:16;;;;;;;10.68;6.20;;;19.50;99.90;;;;;;5095284;28;20518;-73
2023/08/22 03:00:45;;;;;;;12.43;5.88;;;19.40;99.90;;;;;;5095147;28;20199;-74
2023/08/22 03:03:11;;;;;;;10.02;5.53;;;19.40;99.90;;;;;;5095278;28;20168;-74
2023/08/22 03:05:37;;;;;;;10.50;6.03;;;19.40;99.90;;;;;;5095198;28;20199;-74
2023/08/22 03:08:03;;;;;;;11.35;6.07;;;19.50;99.90;;;;;;5095231;28;20191;-74
2023/08/22 03:10:29;;;;;;;10.40;5.45;;;19.60;99.90;;;;;;5094099;28;20167;-74
2023/08/22 03:12:54;;;;;;;8.65;5.95;;;19.50;99.90;;;;;;5094616;28;20172;-75
2023/08/22 03:15:20;;;;;;;11.18;6.35;;;19.60;99.90;;;;;;5093035;28;20523;-73
2023/08/22 03:17:45;;;;;;;11.60;6.88;;;19.60;99.90;;;;;;5094583;28;20345;-74
2023/08/22 03:20:11;;;;;;;18.33;7.03;;;19.60;99.90;;;;;;5094696;28;20247;-74
2023/08/22 03:22:37;;;;;;;11.65;7.00;;;19.60;99.90;;;;;;5094831;28;20504;-74
2023/08/22 03:25:03;;;;;;;12.45;6.95;;;19.60;99.90;;;;;;5094589;28;20164;-74
2023/08/22 03:27:29;;;;;;;8.68;6.55;;;19.60;99.90;;;;;;5093200;28;20271;-74
2023/08/22 03:29:55;;;;;;;12.20;6.75;;;19.50;99.90;;;;;;5094373;28;20163;-74
2023/08/22 03:32:20;;;;;;;10.65;6.72;;;19.40;99.90;;;;;;5094653;28;20685;-73
2023/08/22 03:34:46;;;;;;;15.80;8.00;;;19.40;99.90;;;;;;5094544;28;20183;-74
2023/08/22 03:37:11;;;;;;;10.55;6.50;;;19.40;99.90;;;;;;5094652;28;20539;-74
2023/08/22 03:39:37;;;;;;;12.20;7.30;;;19.40;99.90;;;;;;5094707;28;20623;-74
2023/08/22 03:42:03;;;;;;;9.32;6.80;;;19.30;99.90;;;;;;5094287;28;20262;-74
2023/08/22 03:44:30;;;;;;;10.43;6.80;;;19.30;99.90;;;;;;5093891;28;20176;-74
2023/08/22 03:46:56;;;;;;;8.50;6.70;;;19.30;99.90;;;;;;5093507;28;20215;-75
2023/08/22 03:49:21;;;;;;;10.77;6.72;;;19.20;99.90;;;;;;5094353;28;20741;-75
2023/08/22 03:51:47;;;;;;;10.32;7.28;;;19.10;99.90;;;;;;5093920;28;20169;-74
2023/08/22 03:54:12;;;;;;;8.43;6.55;;;19.20;99.90;;;;;;5093878;28;20661;-74
2023/08/22 03:56:38;;;;;;;14.30;6.75;;;19.20;99.90;;;;;;5093931;28;20180;-75
2023/08/22 03:59:04;;;;;;;11.15;7.57;;;19.20;99.90;;;;;;5093565;28;20305;-75
2023/08/22 04:01:29;;;;;;;11.70;7.40;;;19.20;99.90;;;;;;5093879;28;20678;-75
2023/08/22 04:03:55;;;;;;;11.95;7.35;;;19.20;99.90;;;;;;5093616;28;20255;-75
2023/08/22 04:06:21;;;;;;;9.65;7.10;;;19.20;99.90;;;;;;5093913;28;20265;-74
2023/08/22 04:08:46;;;;;;;10.98;7.07;;;19.20;99.90;;;;;;5093908;28;20696;-74
2023/08/22 04:11:12;;;;;;;16.02;8.55;;;19.10;99.90;;;;;;5093243;28;20203;-74
2023/08/22 04:13:38;;;;;;;12.57;7.47;;;19.10;99.90;;;;;;5093192;28;20569;-74
2023/08/22 04:16:03;;;;;;;12.48;7.20;;;19.20;99.90;;;;;;5093717;28;20247;-74
2023/08/22 04:18:30;;;;;;;13.13;7.50;;;19.20;99.90;;;;;;5093457;28;20239;-74
2023/08/22 04:20:55;;;;;;;15.07;8.15;;;19.20;99.90;;;;;;5093479;28;20258;-75
2023/08/22 04:23:21;;;;;;;10.18;7.45;;;19.10;99.90;;;;;;5093515;28;20198;-75
2023/08/22 04:25:46;;;;;;;15.77;7.72;;;19.10;99.90;;;;;;5093387;28;20589;-75
2023/08/22 04:28:13;;;;;;;13.05;6.80;;;19.00;99.90;;;;;;5093305;28;20198;-76
2023/08/22 04:30:38;;;;;;;10.63;7.28;;;19.00;99.90;;;;;;5093369;28;20168;-74
2023/08/22 04:33:04;;;;;;;12.85;7.85;;;19.00;99.90;;;;;;5092458;28;20217;-75
2023/08/22 04:35:30;;;;;;;13.25;7.63;;;19.00;99.90;;;;;;5093130;28;20172;-75
2023/08/22 04:37:55;;;;;;;17.65;8.52;;;19.00;99.90;;;;;;5093474;28;20195;-73
2023/08/22 04:40:21;;;;;;;8.25;7.18;;;19.00;99.90;;;;;;5093072;28;20183;-73
2023/08/22 04:42:47;;;;;;;14.93;7.70;;;19.00;99.90;;;;;;5091569;28;20176;-73
2023/08/22 04:45:12;;;;;;;12.55;8.20;;;18.90;99.90;;;;;;5093119;28;20288;-73
2023/08/22 04:47:38;;;;;;;11.45;7.90;;;18.90;99.90;;;;;;5093180;28;20178;-74
2023/08/22 04:50:05;;;;;;;13.10;7.50;;;18.90;99.90;;;;;;5093211;28;20254;-74
2023/08/22 04:52:31;;;;;;;18.63;7.90;;;19.00;99.90;;;;;;5092963;28;20172;-74
2023/08/22 04:54:57;;;;;;;11.68;7.93;;;19.00;99.90;;;;;;5092764;28;20552;-74
2023/08/22 04:57:23;;;;;;;17.83;8.48;;;19.00;99.90;;;;;;5092785;28;20204;-75
2023/08/22 04:59:52;;;;;;;19.02;8.07;;;19.10;99.90;;;;;;5091778;28;20234;-74
2023/08/22 05:02:18;;;;;;;14.07;8.23;;;19.10;99.90;;;;;;5093095;28;20164;-74
2023/08/22 05:04:44;;;;;;;13.15;8.48;;;19.40;99.90;;;;;;5092890;28;20300;-74
2023/08/22 05:07:09;;;;;;;12.18;7.80;;;19.50;99.90;;;;;;5092772;28;20570;-74
2023/08/22 05:09:35;;;;;;;14.10;8.13;;;19.70;99.90;;;;;;5092505;28;20164;-74
2023/08/22 05:12:00;;;;;;;19.48;8.35;;;19.80;99.90;;;;;;5092144;28;20180;-74
2023/08/22 05:14:27;;;;;;;15.63;6.85;;;20.30;99.90;;;;;;5091567;28;20203;-73
2023/08/22 05:16:53;;;;;;;16.38;7.53;;;21.10;99.90;;;;;;5092798;28;20174;-73
2023/08/22 05:19:19;;;;;;;14.13;7.32;;;22.00;99.90;;;;;;5092342;28;20291;-73
2023/08/22 05:21:44;;;;;;;19.10;6.72;;;23.00;99.90;;;;;;5091016;28;20290;-74
2023/08/22 05:24:10;;;;;;;10.45;6.72;;;24.10;99.90;;;;;;5092644;28;20172;-75
2023/08/22 05:26:36;;;;;;;11.50;6.60;;;24.80;99.90;;;;;;5092033;28;20665;-74
2023/08/22 05:29:02;;;;;;;13.88;6.88;;;25.50;99.90;;;;;;5092477;28;20167;-73
2023/08/22 05:31:28;;;;;;;12.27;6.97;;;26.60;99.90;;;;;;5091066;28;20533;-74
2023/08/22 05:33:53;;;;;;;9.18;6.85;;;27.20;99.90;;;;;;5095763;28;20175;-74
2023/08/22 05:36:19;;;;;;;12.10;7.20;;;27.80;99.90;;;;;;5096845;28;20211;-74
2023/08/22 05:38:45;;;;;;;10.10;6.45;;;28.30;99.10;;;;;;5096988;28;20168;-75
2023/08/22 05:41:11;;;;;;;13.95;7.32;;;28.70;97.80;;;;;;5095354;28;20670;-74
2023/08/22 05:43:36;;;;;;;11.43;6.85;;;29.30;96.40;;;;;;5096047;28;20198;-75
2023/08/22 05:46:02;;;;;;;9.77;6.68;;;29.90;94.80;;;;;;5096403;28;20219;-75
2023/08/22 05:48:28;;;;;;;9.35;6.53;;;30.40;93.60;;;;;;5096260;28;20160;-74
2023/08/22 05:50:54;;;;;;;10.35;6.80;;;30.90;91.50;;;;;;5096007;28;20249;-74
2023/08/22 05:53:20;;;;;;;8.48;6.72;;;31.60;88.80;;;;;;5095615;28;20666;-77
2023/08/22 05:55:45;;;;;;;14.57;7.35;;;32.20;84.20;;;;;;5096234;28;20189;-75
2023/08/22 05:58:11;;;;;;;11.38;7.38;;;32.40;80.20;;;;;;5096089;28;20199;-74
2023/08/22 06:00:37;;;;;;;12.20;7.43;;;33.20;75.50;;;;;;5095781;28;20650;-75
2023/08/22 06:03:02;;;;;;;10.02;7.38;;;32.70;74.10;;;;;;5095641;28;20176;-75
2023/08/22 06:05:28;;;;;;;13.38;7.20;;;31.70;78.30;;;;;;5095317;28;20214;-74
2023/08/22 06:07:54;;;;;;;12.30;7.68;;;31.00;81.80;;;;;;5094274;28;20164;-74
2023/08/22 06:10:20;;;;;;;12.73;7.53;;;30.50;85.40;;;;;;5095720;28;20179;-73
2023/08/22 06:12:45;;;;;;;12.35;7.32;;;30.60;85.10;;;;;;5095562;28;20168;-74
2023/08/22 06:15:11;;;;;;;14.95;7.72;;;30.50;86.00;;;;;;5095867;28;20631;-75
2023/08/22 06:17:37;;;;;;;10.32;7.80;;;29.90;88.40;;;;;;5095702;28;20592;-75
2023/08/22 06:20:04;;;;;;;12.07;7.20;;;29.60;90.10;;;;;;5095227;28;20172;-74
2023/08/22 06:22:30;;;;;;;14.07;7.78;;;29.70;89.40;;;;;;5094452;28;20600;-75
2023/08/22 06:24:55;;;;;;;14.15;7.65;;;29.20;90.70;;;;;;5095209;28;20164;-74
2023/08/22 06:27:21;;;;;;;13.55;7.45;;;28.50;92.30;;;;;;5095042;28;20459;-74
2023/08/22 06:29:47;;;;;;;16.65;7.32;;;28.10;94.30;;;;;;5095404;28;20167;-73
2023/08/22 06:32:13;;;;;;;13.40;7.80;;;28.00;95.10;;;;;;5095557;28;20262;-73
2023/08/22 06:34:39;;;;;;;15.85;7.47;;;27.90;96.00;;;;;;5094036;28;20183;-76
2023/08/22 06:37:06;;;;;;;15.57;7.43;;;28.40;95.50;;;;;;5094394;28;20168;-73
2023/08/22 06:39:32;;;;;;;14.13;7.55;;;29.60;92.40;;;;;;5094565;28;20576;-73
2023/08/22 06:41:58;;;;;;;14.25;7.82;;;30.80;86.70;;;;;;5094855;28;20709;-73
2023/08/22 06:44:23;;;;;;;13.50;7.40;;;32.50;77.60;;;;;;5093693;28;20176;-74
2023/08/22 06:46:49;;;;;;;11.73;6.95;;;34.70;66.20;;;;;;5094876;28;20374;-73
2023/08/22 06:49:15;;;;;;;20.17;7.43;;;33.90;61.30;;;;;;5094109;28;20218;-74
2023/08/22 06:51:40;;;;;;;15.95;6.43;;;33.00;64.60;;;;;;5094254;28;20203;-74
2023/08/22 06:54:06;;;;;;;14.80;7.13;;;32.60;68.10;;;;;;5094262;28;20639;-73
2023/08/22 06:56:31;;;;;;;13.35;7.28;;;32.20;67.90;;;;;;5094741;28;20184;-75
2023/08/22 06:58:57;;;;;;;13.90;7.55;;;31.60;71.30;;;;;;5094043;28;20174;-74
2023/08/22 07:01:23;;;;;;;17.15;7.50;;;31.50;72.60;;;;;;5092525;28;20258;-74
2023/08/22 07:03:48;;;;;;;15.90;7.55;;;30.60;78.20;;;;;;5094691;28;20554;-74
2023/08/22 07:06:14;;;;;;;18.40;8.00;;;30.30;80.70;;;;;;5093850;28;20215;-73
2023/08/22 07:08:40;;;;;;;24.88;8.52;;;30.20;83.40;;;;;;5091265;28;20184;-73
2023/08/22 07:11:05;;;;;;;11.85;7.95;;;29.70;86.50;;;;;;5093060;28;20189;-73
2023/08/22 07:13:32;;;;;;;12.57;7.45;;;30.20;84.80;;;;;;5103703;28;20641;-73
2023/08/22 07:15:58;;;;;;;11.70;6.93;;;30.90;80.80;;;;;;5098644;28;20202;-73
2023/08/22 07:18:24;;;;;;;12.13;6.72;;;31.50;76.10;;;;;;5100759;28;20212;-73
2023/08/22 07:20:51;;;;;;;15.70;7.20;;;31.00;75.90;;;;;;5113720;28;20187;-73
2023/08/22 07:23:21;;;;;;;13.80;7.13;;;30.20;81.80;;;;;;5114179;28;20179;-73
2023/08/22 07:25:48;;;;;;;10.50;6.60;;;29.00;86.00;;;;;;5114216;28;20195;-75
2023/08/22 07:28:15;;;;;;;12.38;6.97;;;28.20;92.20;;;;;;5102413;27;20176;-73
2023/08/22 07:30:40;;;;;;;13.50;6.78;;;28.20;92.80;;;;;;5114113;28;20186;-74
2023/08/22 07:33:06;;;;;;;11.05;6.72;;;27.90;93.20;;;;;;5104757;28;20171;-73
2023/08/22 07:35:34;;;;;;;9.68;7.45;;;27.80;94.00;;;;;;5114180;28;20171;-73
2023/08/22 07:37:59;;;;;;;9.30;6.85;;;27.90;94.10;;;;;;5089278;28;20322;-73
2023/08/22 07:40:25;;;;;;;10.85;6.38;;;28.00;93.70;;;;;;5085038;28;20691;-73
2023/08/22 07:42:51;;;;;;;8.35;5.50;;;27.40;94.60;;;;;;5089184;28;20163;-74
2023/08/22 07:45:16;;;;;;;7.22;5.25;;;26.90;96.20;;;;;;5087956;28;20282;-74
2023/08/22 07:47:42;;;;;;;7.10;4.70;;;26.70;97.30;;;;;;5079871;28;20184;-72
2023/08/22 07:50:08;;;;;;;5.63;3.10;;;26.90;96.40;;;;;;5108599;28;20518;-74
2023/08/22 07:52:34;;;;;;;6.65;3.50;;;26.30;96.20;;;;;;5098886;28;20188;-73
2023/08/22 07:54:59;;;;;;;5.38;2.58;;;26.20;96.20;;;;;;5092872;28;20175;-74
2023/08/22 07:57:25;;;;;;;7.43;2.85;;;26.20;96.60;;;;;;5091930;28;20701;-74
2023/08/22 07:59:50;;;;;;;5.22;2.58;;;26.90;94.50;;;;;;5090803;28;20172;-73
2023/08/22 08:02:16;;;;;;;5.03;2.28;;;27.00;92.60;;;;;;5092933;28;20263;-74
2023/08/22 08:04:42;;;;;;;2.85;2.10;;;26.90;93.40;;;;;;5092289;28;20171;-73
2023/08/22 08:07:07;;;;;;;3.10;2.00;;;26.90;93.20;;;;;;5093329;28;20212;-74
2023/08/22 08:09:35;;;;;;;6.88;3.15;;;27.20;93.20;;;;;;5093155;28;20164;-74
2023/08/22 08:12:01;;;;;;;4.00;2.15;;;27.40;92.50;;;;;;5092726;28;20699;-74
2023/08/22 08:14:27;;;;;;;7.03;2.47;;;27.70;92.10;;;;;;5093140;28;20243;-74
2023/08/22 08:16:52;;;;;;;4.35;2.28;;;28.00;91.50;;;;;;5092912;28;20662;-75
2023/08/22 08:19:18;;;;;;;3.60;2.08;;;28.30;90.70;;;;;;5092749;28;20714;-74
2023/08/22 08:21:43;;;;;;;5.57;1.92;;;28.30;90.30;;;;;;5093171;28;20317;-73
2023/08/22 08:24:10;;;;;;;4.97;2.13;;;27.60;91.60;;;;;;5091191;28;20172;-75
2023/08/22 08:26:37;;;;;;;4.45;1.90;;;27.10;92.60;;;;;;5095758;28;20211;-73
2023/08/22 08:29:03;;;;;;;5.90;2.30;;;26.90;93.90;;;;;;5113849;28;20174;-73
2023/08/22 08:31:29;;;;;;;6.88;2.45;;;26.20;95.70;;;;;;5112662;27;20171;-75
2023/08/22 08:33:54;;;;;;;3.08;2.40;;;26.50;95.90;;;;;;5112832;28;20163;-74
2023/08/22 08:36:20;;;;;;;3.95;2.38;;;26.60;95.40;;;;;;5103581;28;20179;-75
2023/08/22 08:38:45;;;;;;;6.07;2.45;;;26.40;96.40;;;;;;5113258;28;20188;-74
2023/08/22 08:41:12;;;;;;;6.80;2.90;;;27.00;95.90;;;;;;5112735;28;20631;-75
2023/08/22 08:43:38;;;;;;;5.22;2.97;;;27.00;95.80;;;;;;5113474;28;20169;-75
2023/08/22 08:46:04;;;;;;;4.78;3.08;;;27.50;94.70;;;;;;5112822;28;20203;-75
2023/08/22 08:48:30;;;;;;;5.53;2.67;;;27.90;94.10;;;;;;5112203;28;20557;-75
2023/08/22 08:51:00;;;;;;;5.22;3.17;;;28.10;93.60;;;;;;5095142;28;20195;-74
2023/08/22 08:53:27;;;;;;;7.25;3.25;;;27.30;95.30;;;;;;5092415;28;20176;-73
2023/08/22 08:55:53;;;;;;;4.82;2.90;;;27.80;95.00;;;;;;5092468;28;20250;-74
2023/08/22 08:58:18;;;;;;;6.03;3.05;;;28.10;94.20;;;;;;5112027;28;20250;-74
2023/08/22 09:00:45;;;;;;;7.75;3.30;;;28.30;93.30;;;;;;5101515;28;20175;-74
2023/08/22 09:03:11;;;;;;;5.70;2.65;;;28.30;93.60;;;;;;5110366;28;20175;-73
2023/08/22 09:05:37;;;;;;;4.50;2.22;;;28.30;93.00;;;;;;5112870;28;20687;-74
2023/08/22 09:08:19;;;;;;;4.93;2.33;;;27.20;94.10;;;;;;5114989;28;20171;-74
2023/08/22 09:10:53;;;;;;;6.15;2.30;;;27.10;95.70;;;;;;5116919;28;20190;-73
2023/08/22 09:13:25;;;;;;;3.67;2.13;;;26.80;96.20;;;;;;5101025;28;20186;-74
2023/08/22 09:15:56;;;;;;;4.43;2.42;;;27.20;95.40;;;;;;5096934;28;20631;-73
2023/08/22 09:18:22;;;;;;;4.32;2.45;;;27.20;95.20;;;;;;5115067;28;20222;-75
2023/08/22 09:20:48;;;;;;;7.60;2.60;;;27.30;94.70;;;;;;5115656;28;20167;-73
2023/08/22 09:23:27;;;;;;;4.15;2.10;;;27.50;94.60;;;;;;5116764;28;20174;-75
2023/08/22 09:25:54;;;;;;;5.10;2.40;;;27.70;94.80;;;;;;5097373;28;20291;-74
2023/08/22 09:28:19;;;;;;;6.57;2.78;;;27.50;94.70;;;;;;5114522;28;20211;-74
2023/08/22 09:30:49;;;;;;;6.38;2.30;;;27.40;95.20;;;;;;5116608;28;20657;-75
2023/08/22 09:33:16;;;;;;;4.07;2.40;;;27.20;95.50;;;;;;5110400;27;20215;-74
2023/08/22 09:35:42;;;;;;;4.15;2.08;;;27.00;95.70;;;;;;5095296;28;20168;-74
2023/08/22 09:38:09;;;;;;;3.95;2.00;;;26.80;96.70;;;;;;5111512;28;20182;-74
2023/08/22 09:40:36;;;;;;;4.68;1.90;;;26.80;96.70;;;;;;5116496;28;20511;-73
2023/08/22 09:43:02;;;;;;;4.05;1.90;;;26.60;96.60;;;;;;5116503;28;20176;-73
2023/08/22 09:45:31;;;;;;;3.35;2.20;;;26.80;96.80;;;;;;5116179;28;20199;-74
2023/08/22 09:48:00;;;;;;;8.35;2.28;;;27.00;96.80;;;;;;5114268;28;20515;-74
2023/08/22 09:50:27;;;;;;;4.18;2.38;;;27.00;96.60;;;;;;5094263;28;20290;-74
2023/08/22 09:52:55;;;;;;;6.60;2.10;;;27.40;95.70;;;;;;5090834;28;20673;-74
2023/08/22 09:55:20;;;;;;;5.53;2.15;;;28.00;94.70;;;;;;5074343;28;20204;-74
2023/08/22 09:57:48;;;;;;;3.63;2.50;;;28.50;94.00;;;;;;5075591;28;20265;-75
2023/08/22 10:00:14;;;;;;;6.13;2.30;;;28.90;93.00;;;;;;5075496;28;20161;-75
2023/08/22 10:02:41;;;;;;;8.30;2.20;;;28.30;93.50;;;;;;5075239;28;20177;-74
2023/08/22 10:05:08;;;;;;;5.32;1.92;;;28.40;92.80;;;;;;5075591;28;20164;-75
2023/08/22 10:07:34;;;;;;;5.28;2.30;;;28.90;92.30;;;;;;5075895;28;20207;-74
2023/08/22 10:10:00;;;;;;;4.05;2.35;;;29.40;91.20;;;;;;5075348;28;20535;-78
2023/08/22 10:12:27;;;;;;;4.28;2.33;;;30.40;87.80;;;;;;5075465;28;20178;-77
2023/08/22 10:14:56;;;;;;;3.58;1.90;;;31.30;81.60;;;;;;5083979;28;20172;-77
2023/08/22 10:17:26;;;;;;;5.43;1.90;;;32.20;76.50;;;;;;5092114;28;20176;-76
2023/08/22 10:19:52;;;;;;;4.68;2.00;;;32.20;74.40;;;;;;5093600;28;20900;-75
2023/08/22 10:22:18;;;;;;;4.20;2.33;;;32.50;73.00;;;;;;5094984;28;20568;-76
2023/08/22 10:24:47;;;;;;;2.95;2.17;;;32.20;72.40;;;;;;5095426;28;20199;-73
2023/08/22 10:27:15;;;;;;;6.80;2.97;;;31.70;74.70;;;;;;5101169;28;20203;-73
2023/08/22 10:29:45;;;;;;;5.38;2.00;;;31.30;77.60;;;;;;5089060;28;20177;-74
2023/08/22 10:32:11;;;;;;;3.22;1.85;;;30.60;80.50;;;;;;5073033;28;20173;-74
2023/08/22 10:34:42;;;;;;;3.63;2.00;;;29.40;86.20;;;;;;5073571;28;20593;-75
2023/08/22 10:37:25;;;;;;;4.57;2.00;;;28.90;90.70;;;;;;5074999;28;20180;-72
2023/08/22 10:39:51;;;;;;;2.67;2.00;;;28.30;92.20;;;;;;5091358;28;20275;-73
2023/08/22 10:42:23;;;;;;;4.75;1.90;;;28.60;92.60;;;;;;5094419;28;20247;-73
2023/08/22 10:44:57;;;;;;;1.65;1.52;;;28.90;91.20;;;;;;5094394;28;20179;-73
2023/08/22 10:47:24;;;;;;;4.53;2.10;;;29.20;90.70;;;;;;5094824;28;20222;-74
2023/08/22 10:49:55;;;;;;;5.13;1.52;;;29.20;90.80;;;;;;5094995;28;20180;-75
2023/08/22 10:52:37;;;;;;;3.67;2.00;;;28.90;91.30;;;;;;5094342;28;20178;-75
2023/08/22 10:55:03;;;;;;;4.00;1.42;;;29.00;90.10;;;;;;5094516;28;20164;-74
2023/08/22 10:57:31;;;;;;;3.22;1.70;;;28.50;90.90;;;;;;5094491;28;20167;-73
2023/08/22 11:00:00;;;;;;;2.65;1.40;;;28.60;90.80;;;;;;5094081;28;20164;-74
2023/08/22 11:02:29;;;;;;;5.60;1.60;;;28.80;90.20;;;;;;5094508;28;20681;-74
2023/08/22 11:05:00;;;;;;;2.35;1.15;;;29.20;88.20;;;;;;5094697;28;20654;-74
2023/08/22 11:07:27;;;;;;;3.75;1.50;;;29.70;83.30;;;;;;5074326;28;20212;-74
2023/08/22 11:09:57;;;;;;;3.55;1.60;;;30.00;82.40;;;;;;5074016;28;20243;-73
2023/08/22 11:12:26;;;;;;;4.15;1.42;;;30.40;79.60;;;;;;5073748;28;20176;-73
2023/08/22 11:14:53;;;;;;;2.83;1.58;;;30.80;77.40;;;;;;5073281;28;20180;-74
2023/08/22 11:17:21;;;;;;;2.83;1.77;;;31.30;75.60;;;;;;5073574;28;20169;-73
2023/08/22 11:19:47;;;;;;;8.25;1.70;;;31.30;73.40;;;;;;5074525;28;20199;-75
2023/08/22 11:22:15;;;;;;;4.15;1.90;;;30.90;72.80;;;;;;5082575;28;20249;-75
2023/08/22 11:24:49;;;;;;;2.38;1.50;;;31.00;74.30;;;;;;5074382;28;20204;-74
2023/08/22 11:27:15;;;;;;;4.32;1.33;;;30.70;73.10;;;;;;5073508;28;20204;-74
2023/08/22 11:29:49;;;;;;;2.13;1.30;;;30.10;75.10;;;;;;5086506;28;20655;-74
2023/08/22 11:32:23;;;;;;;3.20;1.40;;;30.20;75.00;;;;;;5093513;28;20183;-74
2023/08/22 11:34:51;;;;;;;2.92;1.45;;;30.80;73.10;;;;;;5092192;28;20179;-75
2023/08/22 11:37:18;;;;;;;2.58;1.38;;;31.00;69.70;;;;;;5092183;28;20175;-74
2023/08/22 11:39:50;;;;;;;3.45;1.20;;;31.00;67.80;;;;;;5093658;28;20249;-74
2023/08/22 11:42:18;;;;;;;2.72;1.40;;;30.50;70.00;;;;;;5092781;28;20198;-73
2023/08/22 11:45:04;;;;;;;2.40;1.20;;;30.20;71.00;;;;;;5090289;28;20631;-75
2023/08/22 11:47:45;;;;;;;3.42;1.27;;;30.10;70.60;;;;;;5081114;28;20192;-73
2023/08/22 11:50:28;;;;;;;2.05;1.10;;;29.90;73.30;;;;;;5093366;28;20164;-73
2023/08/22 11:52:55;;;;;;;3.10;1.10;;;29.60;72.50;;;;;;5093013;28;20167;-73
2023/08/22 11:55:26;;;;;;;1.83;0.95;;;29.10;73.80;;;;;;5093096;28;20176;-74
2023/08/22 11:58:12;;;;;;;1.98;1.05;;;28.90;74.40;;;;;;5093151;28;20175;-73
2023/08/22 12:00:39;;;;;;;2.30;1.10;;;28.30;74.00;;;;;;5109450;28;20175;-74
2023/08/22 12:03:09;;;;;;;3.00;1.00;;;27.60;78.50;;;;;;5113412;28;20240;-74
2023/08/22 12:05:45;;;;;;;2.63;1.25;;;27.90;78.80;;;;;;5108018;28;20195;-72
2023/08/22 12:08:11;;;;;;;3.88;1.17;;;27.80;81.70;;;;;;5093060;28;20674;-74
2023/08/22 12:10:40;;;;;;;1.95;1.30;;;27.80;84.30;;;;;;5092160;28;20397;-73
2023/08/22 12:13:05;;;;;;;2.58;1.20;;;28.30;84.40;;;;;;5112631;28;20175;-74
2023/08/22 12:15:32;;;;;;;1.95;1.50;;;28.80;81.80;;;;;;5113353;28;20496;-74
2023/08/22 12:17:58;;;;;;;3.00;1.20;;;29.20;81.60;;;;;;5098355;28;20223;-73
2023/08/22 12:20:24;;;;;;;3.85;1.10;;;29.30;78.20;;;;;;5093053;28;20218;-74
2023/08/22 12:22:49;;;;;;;1.48;1.38;;;29.50;75.70;;;;;;5092314;28;20243;-74
2023/08/22 12:25:15;;;;;;;1.55;1.00;;;29.40;73.00;;;;;;5086920;28;20183;-74
2023/08/22 12:27:42;;;;;;;1.42;1.02;;;29.10;72.00;;;;;;5090709;28;20203;-72
2023/08/22 12:30:08;;;;;;;1.30;1.08;;;29.10;71.80;;;;;;5090609;28;20202;-73
2023/08/22 12:32:33;;;;;;;2.35;0.90;;;28.80;70.80;;;;;;5091534;28;20687;-72
2023/08/22 12:34:59;;;;;;;1.15;1.02;;;29.10;69.70;;;;;;5092179;28;20642;-74
2023/08/22 12:37:25;;;;;;;1.77;1.40;;;28.70;72.00;;;;;;5092274;28;20183;-73
2023/08/22 12:39:51;;;;;;;2.00;1.20;;;28.10;76.50;;;;;;5092772;28;20259;-73
2023/08/22 12:42:17;;;;;;;2.47;1.00;;;28.10;76.20;;;;;;5092200;28;20179;-73